<?xml version="1.0" encoding="UTF-8" standalone="no" ?>
<gpx xmlns="http://www.topografix.com/GPX/1/1" xmlns:xsi="http://www.w3.org/2001/XMLSchema-instance" xsi:schemaLocation="http://www.topografix.com/GPX/1/1 http://www.topografix.com/GPX/1/1/gpx.xsd" version="1.1" creator="VisuGPX - https://www.visugpx.com">
  <metadata>
    <name>Besain,La fontaine du Riable</name>
  </metadata>
  <trk>
    <name><![CDATA[Besain,La fontaine du Riable_3]]></name>
    <trkseg>
      <trkpt lat="46.80459" lon="5.79108">
        <ele>560.5</ele>
        <time>2020-05-12T14:49:19Z</time>
      </trkpt>
      <trkpt lat="46.80458" lon="5.79134">
        <ele>557.9</ele>
        <time>2020-05-12T14:49:50Z</time>
      </trkpt>
      <trkpt lat="46.80457" lon="5.79127">
        <ele>557.7</ele>
        <time>2020-05-12T14:50:07Z</time>
      </trkpt>
      <trkpt lat="46.80458" lon="5.7912">
        <ele>558.3</ele>
        <time>2020-05-12T14:50:12Z</time>
      </trkpt>
      <trkpt lat="46.80459" lon="5.79113">
        <ele>558.8</ele>
        <time>2020-05-12T14:50:17Z</time>
      </trkpt>
      <trkpt lat="46.80458" lon="5.7912">
        <ele>558.4</ele>
        <time>2020-05-12T14:50:37Z</time>
      </trkpt>
      <trkpt lat="46.80456" lon="5.79112">
        <ele>559.3</ele>
        <time>2020-05-12T14:50:56Z</time>
      </trkpt>
      <trkpt lat="46.80457" lon="5.79105">
        <ele>560.3</ele>
        <time>2020-05-12T14:51:03Z</time>
      </trkpt>
      <trkpt lat="46.80458" lon="5.79109">
        <ele>559.4</ele>
        <time>2020-05-12T14:51:59Z</time>
      </trkpt>
      <trkpt lat="46.80458" lon="5.79116">
        <ele>559.5</ele>
        <time>2020-05-12T14:52:04Z</time>
      </trkpt>
      <trkpt lat="46.80459" lon="5.79125">
        <ele>559.7</ele>
        <time>2020-05-12T14:52:08Z</time>
      </trkpt>
      <trkpt lat="46.8046" lon="5.79132">
        <ele>559.9</ele>
        <time>2020-05-12T14:52:11Z</time>
      </trkpt>
      <trkpt lat="46.80461" lon="5.79139">
        <ele>559.8</ele>
        <time>2020-05-12T14:52:17Z</time>
      </trkpt>
      <trkpt lat="46.80464" lon="5.79145">
        <ele>558.6</ele>
        <time>2020-05-12T14:52:26Z</time>
      </trkpt>
      <trkpt lat="46.80467" lon="5.7915">
        <ele>557.4</ele>
        <time>2020-05-12T14:52:31Z</time>
      </trkpt>
      <trkpt lat="46.80467" lon="5.79142">
        <ele>555.4</ele>
        <time>2020-05-12T14:52:46Z</time>
      </trkpt>
      <trkpt lat="46.80474" lon="5.7914">
        <ele>554.6</ele>
        <time>2020-05-12T14:53:09Z</time>
      </trkpt>
      <trkpt lat="46.80478" lon="5.79143">
        <ele>554.6</ele>
        <time>2020-05-12T14:53:14Z</time>
      </trkpt>
      <trkpt lat="46.8048" lon="5.79149">
        <ele>554.4</ele>
        <time>2020-05-12T14:53:23Z</time>
      </trkpt>
      <trkpt lat="46.80479" lon="5.79155">
        <ele>554.2</ele>
        <time>2020-05-12T14:53:30Z</time>
      </trkpt>
      <trkpt lat="46.80479" lon="5.79163">
        <ele>554.2</ele>
        <time>2020-05-12T14:53:38Z</time>
      </trkpt>
      <trkpt lat="46.8048" lon="5.7917">
        <ele>555</ele>
        <time>2020-05-12T14:53:47Z</time>
      </trkpt>
      <trkpt lat="46.8048" lon="5.79177">
        <ele>555.7</ele>
        <time>2020-05-12T14:53:54Z</time>
      </trkpt>
      <trkpt lat="46.80478" lon="5.79183">
        <ele>556.1</ele>
        <time>2020-05-12T14:54:00Z</time>
      </trkpt>
      <trkpt lat="46.80474" lon="5.79188">
        <ele>556.4</ele>
        <time>2020-05-12T14:54:08Z</time>
      </trkpt>
      <trkpt lat="46.80474" lon="5.79195">
        <ele>556.3</ele>
        <time>2020-05-12T14:54:17Z</time>
      </trkpt>
      <trkpt lat="46.8047" lon="5.79199">
        <ele>555.6</ele>
        <time>2020-05-12T14:54:29Z</time>
      </trkpt>
      <trkpt lat="46.80466" lon="5.79203">
        <ele>555</ele>
        <time>2020-05-12T14:54:37Z</time>
      </trkpt>
      <trkpt lat="46.80462" lon="5.79206">
        <ele>554</ele>
        <time>2020-05-12T14:54:44Z</time>
      </trkpt>
      <trkpt lat="46.80457" lon="5.79209">
        <ele>552.7</ele>
        <time>2020-05-12T14:54:54Z</time>
      </trkpt>
      <trkpt lat="46.80453" lon="5.79215">
        <ele>552.3</ele>
        <time>2020-05-12T14:54:57Z</time>
      </trkpt>
      <trkpt lat="46.80451" lon="5.79224">
        <ele>553.6</ele>
        <time>2020-05-12T14:55:32Z</time>
      </trkpt>
      <trkpt lat="46.8045" lon="5.7923">
        <ele>554.3</ele>
        <time>2020-05-12T14:55:43Z</time>
      </trkpt>
      <trkpt lat="46.80453" lon="5.79236">
        <ele>554.9</ele>
        <time>2020-05-12T14:55:49Z</time>
      </trkpt>
      <trkpt lat="46.80456" lon="5.79242">
        <ele>555.3</ele>
        <time>2020-05-12T14:55:54Z</time>
      </trkpt>
      <trkpt lat="46.80456" lon="5.79249">
        <ele>555.9</ele>
        <time>2020-05-12T14:56:02Z</time>
      </trkpt>
      <trkpt lat="46.80452" lon="5.79236">
        <ele>558.1</ele>
        <time>2020-05-12T14:56:31Z</time>
      </trkpt>
      <trkpt lat="46.80451" lon="5.79229">
        <ele>558.2</ele>
        <time>2020-05-12T14:56:36Z</time>
      </trkpt>
      <trkpt lat="46.80451" lon="5.79222">
        <ele>558.4</ele>
        <time>2020-05-12T14:56:44Z</time>
      </trkpt>
      <trkpt lat="46.80454" lon="5.79216">
        <ele>558.9</ele>
        <time>2020-05-12T14:56:50Z</time>
      </trkpt>
      <trkpt lat="46.80456" lon="5.7921">
        <ele>559.6</ele>
        <time>2020-05-12T14:56:57Z</time>
      </trkpt>
      <trkpt lat="46.8046" lon="5.79205">
        <ele>559.8</ele>
        <time>2020-05-12T14:57:05Z</time>
      </trkpt>
      <trkpt lat="46.80463" lon="5.79199">
        <ele>559.8</ele>
        <time>2020-05-12T14:57:12Z</time>
      </trkpt>
      <trkpt lat="46.80466" lon="5.79196">
        <ele>560</ele>
        <time>2020-05-12T14:57:19Z</time>
      </trkpt>
      <trkpt lat="46.80471" lon="5.79198">
        <ele>560</ele>
        <time>2020-05-12T14:57:31Z</time>
      </trkpt>
      <trkpt lat="46.80474" lon="5.79203">
        <ele>559</ele>
        <time>2020-05-12T14:57:40Z</time>
      </trkpt>
      <trkpt lat="46.80478" lon="5.79202">
        <ele>558.2</ele>
        <time>2020-05-12T14:57:54Z</time>
      </trkpt>
      <trkpt lat="46.80483" lon="5.79206">
        <ele>558</ele>
        <time>2020-05-12T14:58:05Z</time>
      </trkpt>
      <trkpt lat="46.80485" lon="5.79212">
        <ele>557.8</ele>
        <time>2020-05-12T14:58:12Z</time>
      </trkpt>
      <trkpt lat="46.80487" lon="5.79218">
        <ele>557.7</ele>
        <time>2020-05-12T14:58:21Z</time>
      </trkpt>
      <trkpt lat="46.80488" lon="5.79226">
        <ele>557.6</ele>
        <time>2020-05-12T14:58:27Z</time>
      </trkpt>
      <trkpt lat="46.80491" lon="5.7923">
        <ele>557.5</ele>
        <time>2020-05-12T14:58:30Z</time>
      </trkpt>
      <trkpt lat="46.80495" lon="5.79235">
        <ele>557.3</ele>
        <time>2020-05-12T14:58:33Z</time>
      </trkpt>
      <trkpt lat="46.80498" lon="5.7924">
        <ele>556.6</ele>
        <time>2020-05-12T14:58:38Z</time>
      </trkpt>
      <trkpt lat="46.80501" lon="5.79246">
        <ele>555.5</ele>
        <time>2020-05-12T14:58:46Z</time>
      </trkpt>
      <trkpt lat="46.80502" lon="5.79253">
        <ele>554.1</ele>
        <time>2020-05-12T14:58:54Z</time>
      </trkpt>
      <trkpt lat="46.80504" lon="5.79261">
        <ele>553.6</ele>
        <time>2020-05-12T14:58:58Z</time>
      </trkpt>
      <trkpt lat="46.80506" lon="5.79268">
        <ele>553.2</ele>
        <time>2020-05-12T14:59:03Z</time>
      </trkpt>
      <trkpt lat="46.80506" lon="5.79275">
        <ele>552.8</ele>
        <time>2020-05-12T14:59:10Z</time>
      </trkpt>
      <trkpt lat="46.80505" lon="5.79282">
        <ele>552.6</ele>
        <time>2020-05-12T14:59:17Z</time>
      </trkpt>
      <trkpt lat="46.80505" lon="5.79289">
        <ele>552.4</ele>
        <time>2020-05-12T14:59:25Z</time>
      </trkpt>
      <trkpt lat="46.80507" lon="5.79297">
        <ele>552.1</ele>
        <time>2020-05-12T14:59:34Z</time>
      </trkpt>
      <trkpt lat="46.8051" lon="5.79301">
        <ele>551.9</ele>
        <time>2020-05-12T14:59:40Z</time>
      </trkpt>
      <trkpt lat="46.80513" lon="5.79307">
        <ele>551.7</ele>
        <time>2020-05-12T14:59:46Z</time>
      </trkpt>
      <trkpt lat="46.80515" lon="5.79314">
        <ele>551.2</ele>
        <time>2020-05-12T14:59:56Z</time>
      </trkpt>
      <trkpt lat="46.80526" lon="5.79321">
        <ele>550.8</ele>
        <time>2020-05-12T15:00:05Z</time>
      </trkpt>
      <trkpt lat="46.8053" lon="5.79324">
        <ele>551.3</ele>
        <time>2020-05-12T15:00:10Z</time>
      </trkpt>
      <trkpt lat="46.80533" lon="5.79329">
        <ele>551.9</ele>
        <time>2020-05-12T15:00:15Z</time>
      </trkpt>
      <trkpt lat="46.80538" lon="5.79334">
        <ele>552.1</ele>
        <time>2020-05-12T15:00:17Z</time>
      </trkpt>
      <trkpt lat="46.80543" lon="5.79339">
        <ele>552.4</ele>
        <time>2020-05-12T15:00:20Z</time>
      </trkpt>
      <trkpt lat="46.80544" lon="5.79346">
        <ele>553.2</ele>
        <time>2020-05-12T15:00:28Z</time>
      </trkpt>
      <trkpt lat="46.80546" lon="5.79353">
        <ele>553.4</ele>
        <time>2020-05-12T15:00:34Z</time>
      </trkpt>
      <trkpt lat="46.80546" lon="5.79361">
        <ele>553.3</ele>
        <time>2020-05-12T15:00:39Z</time>
      </trkpt>
      <trkpt lat="46.80545" lon="5.79368">
        <ele>553.2</ele>
        <time>2020-05-12T15:00:43Z</time>
      </trkpt>
      <trkpt lat="46.80545" lon="5.79381">
        <ele>553.4</ele>
        <time>2020-05-12T15:00:54Z</time>
      </trkpt>
      <trkpt lat="46.80551" lon="5.79386">
        <ele>555.7</ele>
        <time>2020-05-12T15:01:48Z</time>
      </trkpt>
      <trkpt lat="46.80567" lon="5.79385">
        <ele>557.5</ele>
        <time>2020-05-12T15:01:59Z</time>
      </trkpt>
      <trkpt lat="46.8057" lon="5.79378">
        <ele>558</ele>
        <time>2020-05-12T15:02:06Z</time>
      </trkpt>
      <trkpt lat="46.80576" lon="5.79378">
        <ele>558.7</ele>
        <time>2020-05-12T15:02:11Z</time>
      </trkpt>
      <trkpt lat="46.80582" lon="5.7938">
        <ele>559.4</ele>
        <time>2020-05-12T15:02:15Z</time>
      </trkpt>
      <trkpt lat="46.80588" lon="5.7938">
        <ele>559.8</ele>
        <time>2020-05-12T15:02:18Z</time>
      </trkpt>
      <trkpt lat="46.80593" lon="5.79381">
        <ele>560.2</ele>
        <time>2020-05-12T15:02:23Z</time>
      </trkpt>
      <trkpt lat="46.80598" lon="5.79379">
        <ele>560.5</ele>
        <time>2020-05-12T15:02:29Z</time>
      </trkpt>
      <trkpt lat="46.80604" lon="5.79383">
        <ele>560.6</ele>
        <time>2020-05-12T15:02:37Z</time>
      </trkpt>
      <trkpt lat="46.80608" lon="5.79387">
        <ele>560.5</ele>
        <time>2020-05-12T15:02:40Z</time>
      </trkpt>
      <trkpt lat="46.80613" lon="5.79389">
        <ele>560.3</ele>
        <time>2020-05-12T15:02:47Z</time>
      </trkpt>
      <trkpt lat="46.80618" lon="5.79387">
        <ele>560.3</ele>
        <time>2020-05-12T15:02:49Z</time>
      </trkpt>
      <trkpt lat="46.80622" lon="5.79385">
        <ele>560.8</ele>
        <time>2020-05-12T15:03:01Z</time>
      </trkpt>
      <trkpt lat="46.80628" lon="5.7939">
        <ele>561.9</ele>
        <time>2020-05-12T15:03:14Z</time>
      </trkpt>
      <trkpt lat="46.80632" lon="5.79393">
        <ele>562</ele>
        <time>2020-05-12T15:03:16Z</time>
      </trkpt>
      <trkpt lat="46.80637" lon="5.79397">
        <ele>562.3</ele>
        <time>2020-05-12T15:03:21Z</time>
      </trkpt>
      <trkpt lat="46.80641" lon="5.79402">
        <ele>562.1</ele>
        <time>2020-05-12T15:03:27Z</time>
      </trkpt>
      <trkpt lat="46.80645" lon="5.79404">
        <ele>561.2</ele>
        <time>2020-05-12T15:03:34Z</time>
      </trkpt>
      <trkpt lat="46.8065" lon="5.79408">
        <ele>560.7</ele>
        <time>2020-05-12T15:03:38Z</time>
      </trkpt>
      <trkpt lat="46.80654" lon="5.7941">
        <ele>560.3</ele>
        <time>2020-05-12T15:03:42Z</time>
      </trkpt>
      <trkpt lat="46.80658" lon="5.79413">
        <ele>560.1</ele>
        <time>2020-05-12T15:03:46Z</time>
      </trkpt>
      <trkpt lat="46.80662" lon="5.79416">
        <ele>559.9</ele>
        <time>2020-05-12T15:03:49Z</time>
      </trkpt>
      <trkpt lat="46.80666" lon="5.7942">
        <ele>559.9</ele>
        <time>2020-05-12T15:03:53Z</time>
      </trkpt>
      <trkpt lat="46.80672" lon="5.79432">
        <ele>559.9</ele>
        <time>2020-05-12T15:04:05Z</time>
      </trkpt>
      <trkpt lat="46.80674" lon="5.79438">
        <ele>559.6</ele>
        <time>2020-05-12T15:04:10Z</time>
      </trkpt>
      <trkpt lat="46.80678" lon="5.79444">
        <ele>559.6</ele>
        <time>2020-05-12T15:04:17Z</time>
      </trkpt>
      <trkpt lat="46.8068" lon="5.7945">
        <ele>559.7</ele>
        <time>2020-05-12T15:04:27Z</time>
      </trkpt>
      <trkpt lat="46.80684" lon="5.79453">
        <ele>559.8</ele>
        <time>2020-05-12T15:04:33Z</time>
      </trkpt>
      <trkpt lat="46.80689" lon="5.79458">
        <ele>559.5</ele>
        <time>2020-05-12T15:04:38Z</time>
      </trkpt>
      <trkpt lat="46.80691" lon="5.79464">
        <ele>559.1</ele>
        <time>2020-05-12T15:04:43Z</time>
      </trkpt>
      <trkpt lat="46.80692" lon="5.79471">
        <ele>558.6</ele>
        <time>2020-05-12T15:04:47Z</time>
      </trkpt>
      <trkpt lat="46.80694" lon="5.79477">
        <ele>558</ele>
        <time>2020-05-12T15:04:52Z</time>
      </trkpt>
      <trkpt lat="46.80696" lon="5.79484">
        <ele>557.5</ele>
        <time>2020-05-12T15:04:57Z</time>
      </trkpt>
      <trkpt lat="46.80699" lon="5.79489">
        <ele>557</ele>
        <time>2020-05-12T15:05:03Z</time>
      </trkpt>
      <trkpt lat="46.80718" lon="5.795">
        <ele>555</ele>
        <time>2020-05-12T15:05:22Z</time>
      </trkpt>
      <trkpt lat="46.80722" lon="5.79504">
        <ele>554.6</ele>
        <time>2020-05-12T15:05:26Z</time>
      </trkpt>
      <trkpt lat="46.80723" lon="5.79511">
        <ele>554.2</ele>
        <time>2020-05-12T15:05:29Z</time>
      </trkpt>
      <trkpt lat="46.80724" lon="5.79519">
        <ele>553.9</ele>
        <time>2020-05-12T15:05:31Z</time>
      </trkpt>
      <trkpt lat="46.80725" lon="5.79526">
        <ele>553</ele>
        <time>2020-05-12T15:05:37Z</time>
      </trkpt>
      <trkpt lat="46.80727" lon="5.79546">
        <ele>549.7</ele>
        <time>2020-05-12T15:05:55Z</time>
      </trkpt>
      <trkpt lat="46.80727" lon="5.79555">
        <ele>549.1</ele>
        <time>2020-05-12T15:05:59Z</time>
      </trkpt>
      <trkpt lat="46.80725" lon="5.79564">
        <ele>548.7</ele>
        <time>2020-05-12T15:06:01Z</time>
      </trkpt>
      <trkpt lat="46.80724" lon="5.79572">
        <ele>548.1</ele>
        <time>2020-05-12T15:06:05Z</time>
      </trkpt>
      <trkpt lat="46.80723" lon="5.79578">
        <ele>547.3</ele>
        <time>2020-05-12T15:06:10Z</time>
      </trkpt>
      <trkpt lat="46.80722" lon="5.79585">
        <ele>546.1</ele>
        <time>2020-05-12T15:06:16Z</time>
      </trkpt>
      <trkpt lat="46.8072" lon="5.79592">
        <ele>544.7</ele>
        <time>2020-05-12T15:06:22Z</time>
      </trkpt>
      <trkpt lat="46.80719" lon="5.79602">
        <ele>542.7</ele>
        <time>2020-05-12T15:06:32Z</time>
      </trkpt>
      <trkpt lat="46.80716" lon="5.79611">
        <ele>543.1</ele>
        <time>2020-05-12T15:06:37Z</time>
      </trkpt>
      <trkpt lat="46.80714" lon="5.79617">
        <ele>543.6</ele>
        <time>2020-05-12T15:06:40Z</time>
      </trkpt>
      <trkpt lat="46.80711" lon="5.79624">
        <ele>544.1</ele>
        <time>2020-05-12T15:06:44Z</time>
      </trkpt>
      <trkpt lat="46.8071" lon="5.7963">
        <ele>544.3</ele>
        <time>2020-05-12T15:06:52Z</time>
      </trkpt>
      <trkpt lat="46.80707" lon="5.79634">
        <ele>544.4</ele>
        <time>2020-05-12T15:06:56Z</time>
      </trkpt>
      <trkpt lat="46.80701" lon="5.79636">
        <ele>544.4</ele>
        <time>2020-05-12T15:07:02Z</time>
      </trkpt>
      <trkpt lat="46.80696" lon="5.7964">
        <ele>544.3</ele>
        <time>2020-05-12T15:07:05Z</time>
      </trkpt>
      <trkpt lat="46.80693" lon="5.79646">
        <ele>544.3</ele>
        <time>2020-05-12T15:07:08Z</time>
      </trkpt>
      <trkpt lat="46.8069" lon="5.79651">
        <ele>544.5</ele>
        <time>2020-05-12T15:07:12Z</time>
      </trkpt>
      <trkpt lat="46.80689" lon="5.7966">
        <ele>544.9</ele>
        <time>2020-05-12T15:07:16Z</time>
      </trkpt>
      <trkpt lat="46.80689" lon="5.79669">
        <ele>544.9</ele>
        <time>2020-05-12T15:07:19Z</time>
      </trkpt>
      <trkpt lat="46.80689" lon="5.79683">
        <ele>545.1</ele>
        <time>2020-05-12T15:07:33Z</time>
      </trkpt>
      <trkpt lat="46.80693" lon="5.79701">
        <ele>545.4</ele>
        <time>2020-05-12T15:07:44Z</time>
      </trkpt>
      <trkpt lat="46.80696" lon="5.79707">
        <ele>545.4</ele>
        <time>2020-05-12T15:07:46Z</time>
      </trkpt>
      <trkpt lat="46.80699" lon="5.79713">
        <ele>545.5</ele>
        <time>2020-05-12T15:07:50Z</time>
      </trkpt>
      <trkpt lat="46.80702" lon="5.79733">
        <ele>547.7</ele>
        <time>2020-05-12T15:08:32Z</time>
      </trkpt>
      <trkpt lat="46.80701" lon="5.7974">
        <ele>550.2</ele>
        <time>2020-05-12T15:08:52Z</time>
      </trkpt>
      <trkpt lat="46.80701" lon="5.79747">
        <ele>551.5</ele>
        <time>2020-05-12T15:08:57Z</time>
      </trkpt>
      <trkpt lat="46.807" lon="5.79755">
        <ele>553.5</ele>
        <time>2020-05-12T15:09:11Z</time>
      </trkpt>
      <trkpt lat="46.80699" lon="5.79762">
        <ele>554.1</ele>
        <time>2020-05-12T15:09:16Z</time>
      </trkpt>
      <trkpt lat="46.80699" lon="5.79769">
        <ele>554.4</ele>
        <time>2020-05-12T15:09:20Z</time>
      </trkpt>
      <trkpt lat="46.80698" lon="5.79776">
        <ele>554.5</ele>
        <time>2020-05-12T15:09:23Z</time>
      </trkpt>
      <trkpt lat="46.80696" lon="5.798">
        <ele>554.9</ele>
        <time>2020-05-12T15:09:47Z</time>
      </trkpt>
      <trkpt lat="46.80696" lon="5.79807">
        <ele>554.4</ele>
        <time>2020-05-12T15:09:51Z</time>
      </trkpt>
      <trkpt lat="46.80695" lon="5.79814">
        <ele>554.2</ele>
        <time>2020-05-12T15:09:53Z</time>
      </trkpt>
      <trkpt lat="46.80696" lon="5.79821">
        <ele>553.6</ele>
        <time>2020-05-12T15:09:57Z</time>
      </trkpt>
      <trkpt lat="46.80698" lon="5.79828">
        <ele>551.2</ele>
        <time>2020-05-12T15:10:09Z</time>
      </trkpt>
      <trkpt lat="46.80699" lon="5.79837">
        <ele>550.8</ele>
        <time>2020-05-12T15:10:12Z</time>
      </trkpt>
      <trkpt lat="46.80698" lon="5.79844">
        <ele>550.2</ele>
        <time>2020-05-12T15:10:15Z</time>
      </trkpt>
      <trkpt lat="46.80699" lon="5.79852">
        <ele>548.9</ele>
        <time>2020-05-12T15:10:26Z</time>
      </trkpt>
      <trkpt lat="46.80699" lon="5.7986">
        <ele>548.6</ele>
        <time>2020-05-12T15:10:30Z</time>
      </trkpt>
      <trkpt lat="46.80699" lon="5.79866">
        <ele>548.5</ele>
        <time>2020-05-12T15:10:34Z</time>
      </trkpt>
      <trkpt lat="46.80699" lon="5.79873">
        <ele>548.5</ele>
        <time>2020-05-12T15:10:39Z</time>
      </trkpt>
      <trkpt lat="46.807" lon="5.79881">
        <ele>548.8</ele>
        <time>2020-05-12T15:10:46Z</time>
      </trkpt>
      <trkpt lat="46.80701" lon="5.79887">
        <ele>549</ele>
        <time>2020-05-12T15:10:49Z</time>
      </trkpt>
      <trkpt lat="46.80704" lon="5.79894">
        <ele>549.2</ele>
        <time>2020-05-12T15:10:54Z</time>
      </trkpt>
      <trkpt lat="46.80707" lon="5.799">
        <ele>549.5</ele>
        <time>2020-05-12T15:10:59Z</time>
      </trkpt>
      <trkpt lat="46.80708" lon="5.79906">
        <ele>550.3</ele>
        <time>2020-05-12T15:11:06Z</time>
      </trkpt>
      <trkpt lat="46.80709" lon="5.79913">
        <ele>550.8</ele>
        <time>2020-05-12T15:11:13Z</time>
      </trkpt>
      <trkpt lat="46.80708" lon="5.7992">
        <ele>551</ele>
        <time>2020-05-12T15:11:17Z</time>
      </trkpt>
      <trkpt lat="46.80709" lon="5.79927">
        <ele>551.3</ele>
        <time>2020-05-12T15:11:22Z</time>
      </trkpt>
      <trkpt lat="46.80706" lon="5.79933">
        <ele>551.6</ele>
        <time>2020-05-12T15:11:29Z</time>
      </trkpt>
      <trkpt lat="46.80703" lon="5.79938">
        <ele>552.3</ele>
        <time>2020-05-12T15:11:37Z</time>
      </trkpt>
      <trkpt lat="46.80701" lon="5.79945">
        <ele>553</ele>
        <time>2020-05-12T15:11:45Z</time>
      </trkpt>
      <trkpt lat="46.80698" lon="5.79958">
        <ele>552.9</ele>
        <time>2020-05-12T15:11:58Z</time>
      </trkpt>
      <trkpt lat="46.80697" lon="5.79966">
        <ele>552.7</ele>
        <time>2020-05-12T15:12:01Z</time>
      </trkpt>
      <trkpt lat="46.80696" lon="5.79974">
        <ele>552.5</ele>
        <time>2020-05-12T15:12:05Z</time>
      </trkpt>
      <trkpt lat="46.80696" lon="5.79984">
        <ele>552.4</ele>
        <time>2020-05-12T15:12:14Z</time>
      </trkpt>
      <trkpt lat="46.80696" lon="5.7999">
        <ele>552.6</ele>
        <time>2020-05-12T15:12:20Z</time>
      </trkpt>
      <trkpt lat="46.80695" lon="5.79997">
        <ele>552.8</ele>
        <time>2020-05-12T15:12:24Z</time>
      </trkpt>
      <trkpt lat="46.80697" lon="5.80004">
        <ele>553.3</ele>
        <time>2020-05-12T15:12:31Z</time>
      </trkpt>
      <trkpt lat="46.80698" lon="5.80011">
        <ele>553.3</ele>
        <time>2020-05-12T15:12:35Z</time>
      </trkpt>
      <trkpt lat="46.80699" lon="5.80018">
        <ele>553.2</ele>
        <time>2020-05-12T15:12:38Z</time>
      </trkpt>
      <trkpt lat="46.807" lon="5.80026">
        <ele>553.2</ele>
        <time>2020-05-12T15:12:42Z</time>
      </trkpt>
      <trkpt lat="46.80701" lon="5.80032">
        <ele>553.2</ele>
        <time>2020-05-12T15:12:48Z</time>
      </trkpt>
      <trkpt lat="46.80702" lon="5.80039">
        <ele>553.6</ele>
        <time>2020-05-12T15:12:55Z</time>
      </trkpt>
      <trkpt lat="46.80705" lon="5.80045">
        <ele>553.9</ele>
        <time>2020-05-12T15:13:01Z</time>
      </trkpt>
      <trkpt lat="46.80712" lon="5.80059">
        <ele>553</ele>
        <time>2020-05-12T15:13:13Z</time>
      </trkpt>
      <trkpt lat="46.80713" lon="5.80065">
        <ele>552.4</ele>
        <time>2020-05-12T15:13:18Z</time>
      </trkpt>
      <trkpt lat="46.80712" lon="5.80073">
        <ele>551.8</ele>
        <time>2020-05-12T15:13:23Z</time>
      </trkpt>
      <trkpt lat="46.8071" lon="5.8008">
        <ele>551.6</ele>
        <time>2020-05-12T15:13:28Z</time>
      </trkpt>
      <trkpt lat="46.80707" lon="5.80086">
        <ele>551.7</ele>
        <time>2020-05-12T15:13:31Z</time>
      </trkpt>
      <trkpt lat="46.80705" lon="5.80093">
        <ele>552</ele>
        <time>2020-05-12T15:13:35Z</time>
      </trkpt>
      <trkpt lat="46.80705" lon="5.80099">
        <ele>552.3</ele>
        <time>2020-05-12T15:13:43Z</time>
      </trkpt>
      <trkpt lat="46.80702" lon="5.80107">
        <ele>552.5</ele>
        <time>2020-05-12T15:13:48Z</time>
      </trkpt>
      <trkpt lat="46.807" lon="5.80114">
        <ele>552.5</ele>
        <time>2020-05-12T15:13:53Z</time>
      </trkpt>
      <trkpt lat="46.80697" lon="5.8012">
        <ele>552.5</ele>
        <time>2020-05-12T15:13:58Z</time>
      </trkpt>
      <trkpt lat="46.80695" lon="5.80126">
        <ele>552.4</ele>
        <time>2020-05-12T15:14:03Z</time>
      </trkpt>
      <trkpt lat="46.80693" lon="5.80133">
        <ele>552.3</ele>
        <time>2020-05-12T15:14:11Z</time>
      </trkpt>
      <trkpt lat="46.80689" lon="5.80137">
        <ele>551.9</ele>
        <time>2020-05-12T15:14:17Z</time>
      </trkpt>
      <trkpt lat="46.80686" lon="5.80142">
        <ele>551.5</ele>
        <time>2020-05-12T15:14:22Z</time>
      </trkpt>
      <trkpt lat="46.80684" lon="5.80147">
        <ele>551</ele>
        <time>2020-05-12T15:14:27Z</time>
      </trkpt>
      <trkpt lat="46.80681" lon="5.80154">
        <ele>550.6</ele>
        <time>2020-05-12T15:14:35Z</time>
      </trkpt>
      <trkpt lat="46.80677" lon="5.80159">
        <ele>550.5</ele>
        <time>2020-05-12T15:14:39Z</time>
      </trkpt>
      <trkpt lat="46.80673" lon="5.80165">
        <ele>550</ele>
        <time>2020-05-12T15:14:45Z</time>
      </trkpt>
      <trkpt lat="46.80669" lon="5.80169">
        <ele>549.7</ele>
        <time>2020-05-12T15:14:48Z</time>
      </trkpt>
      <trkpt lat="46.80664" lon="5.8017">
        <ele>549.2</ele>
        <time>2020-05-12T15:14:53Z</time>
      </trkpt>
      <trkpt lat="46.80658" lon="5.80172">
        <ele>548.7</ele>
        <time>2020-05-12T15:14:59Z</time>
      </trkpt>
      <trkpt lat="46.80653" lon="5.80176">
        <ele>548.6</ele>
        <time>2020-05-12T15:15:02Z</time>
      </trkpt>
      <trkpt lat="46.80649" lon="5.80177">
        <ele>548.4</ele>
        <time>2020-05-12T15:15:06Z</time>
      </trkpt>
      <trkpt lat="46.80644" lon="5.80179">
        <ele>548.3</ele>
        <time>2020-05-12T15:15:09Z</time>
      </trkpt>
      <trkpt lat="46.8064" lon="5.80183">
        <ele>548.3</ele>
        <time>2020-05-12T15:15:14Z</time>
      </trkpt>
      <trkpt lat="46.80636" lon="5.80188">
        <ele>548.1</ele>
        <time>2020-05-12T15:15:18Z</time>
      </trkpt>
      <trkpt lat="46.80633" lon="5.80193">
        <ele>548</ele>
        <time>2020-05-12T15:15:24Z</time>
      </trkpt>
      <trkpt lat="46.80628" lon="5.80197">
        <ele>548.1</ele>
        <time>2020-05-12T15:15:30Z</time>
      </trkpt>
      <trkpt lat="46.80621" lon="5.80206">
        <ele>549.2</ele>
        <time>2020-05-12T15:15:40Z</time>
      </trkpt>
      <trkpt lat="46.80617" lon="5.80213">
        <ele>549.5</ele>
        <time>2020-05-12T15:15:43Z</time>
      </trkpt>
      <trkpt lat="46.80615" lon="5.80219">
        <ele>549.8</ele>
        <time>2020-05-12T15:15:46Z</time>
      </trkpt>
      <trkpt lat="46.80615" lon="5.80227">
        <ele>550.5</ele>
        <time>2020-05-12T15:15:52Z</time>
      </trkpt>
      <trkpt lat="46.80612" lon="5.80233">
        <ele>551.4</ele>
        <time>2020-05-12T15:15:58Z</time>
      </trkpt>
      <trkpt lat="46.80609" lon="5.80238">
        <ele>552.2</ele>
        <time>2020-05-12T15:16:06Z</time>
      </trkpt>
      <trkpt lat="46.80606" lon="5.80243">
        <ele>552.7</ele>
        <time>2020-05-12T15:16:13Z</time>
      </trkpt>
      <trkpt lat="46.80603" lon="5.80248">
        <ele>552.8</ele>
        <time>2020-05-12T15:16:19Z</time>
      </trkpt>
      <trkpt lat="46.80598" lon="5.80251">
        <ele>552.2</ele>
        <time>2020-05-12T15:16:26Z</time>
      </trkpt>
      <trkpt lat="46.80593" lon="5.80273">
        <ele>552.8</ele>
        <time>2020-05-12T15:18:06Z</time>
      </trkpt>
      <trkpt lat="46.80591" lon="5.80281">
        <ele>553.4</ele>
        <time>2020-05-12T15:18:10Z</time>
      </trkpt>
      <trkpt lat="46.80588" lon="5.8029">
        <ele>554</ele>
        <time>2020-05-12T15:18:14Z</time>
      </trkpt>
      <trkpt lat="46.80584" lon="5.80295">
        <ele>554.8</ele>
        <time>2020-05-12T15:18:21Z</time>
      </trkpt>
      <trkpt lat="46.80577" lon="5.80297">
        <ele>555</ele>
        <time>2020-05-12T15:18:26Z</time>
      </trkpt>
      <trkpt lat="46.80572" lon="5.80297">
        <ele>554.9</ele>
        <time>2020-05-12T15:18:30Z</time>
      </trkpt>
      <trkpt lat="46.80568" lon="5.80297">
        <ele>554.8</ele>
        <time>2020-05-12T15:18:36Z</time>
      </trkpt>
      <trkpt lat="46.80563" lon="5.80295">
        <ele>554.2</ele>
        <time>2020-05-12T15:18:48Z</time>
      </trkpt>
      <trkpt lat="46.80552" lon="5.80297">
        <ele>553.7</ele>
        <time>2020-05-12T15:19:11Z</time>
      </trkpt>
      <trkpt lat="46.80547" lon="5.80299">
        <ele>553.4</ele>
        <time>2020-05-12T15:19:19Z</time>
      </trkpt>
      <trkpt lat="46.80533" lon="5.80305">
        <ele>551.9</ele>
        <time>2020-05-12T15:19:28Z</time>
      </trkpt>
      <trkpt lat="46.80528" lon="5.80308">
        <ele>551.6</ele>
        <time>2020-05-12T15:19:31Z</time>
      </trkpt>
      <trkpt lat="46.80522" lon="5.80314">
        <ele>551.3</ele>
        <time>2020-05-12T15:19:33Z</time>
      </trkpt>
      <trkpt lat="46.80518" lon="5.80317">
        <ele>551</ele>
        <time>2020-05-12T15:19:36Z</time>
      </trkpt>
      <trkpt lat="46.80513" lon="5.80317">
        <ele>550.1</ele>
        <time>2020-05-12T15:19:46Z</time>
      </trkpt>
      <trkpt lat="46.80508" lon="5.80318">
        <ele>550.1</ele>
        <time>2020-05-12T15:19:54Z</time>
      </trkpt>
      <trkpt lat="46.80503" lon="5.8032">
        <ele>550.5</ele>
        <time>2020-05-12T15:20:00Z</time>
      </trkpt>
      <trkpt lat="46.80497" lon="5.80321">
        <ele>550.7</ele>
        <time>2020-05-12T15:20:04Z</time>
      </trkpt>
      <trkpt lat="46.80493" lon="5.80323">
        <ele>550.6</ele>
        <time>2020-05-12T15:20:09Z</time>
      </trkpt>
      <trkpt lat="46.80489" lon="5.80325">
        <ele>550.5</ele>
        <time>2020-05-12T15:20:12Z</time>
      </trkpt>
      <trkpt lat="46.80486" lon="5.80321">
        <ele>551.7</ele>
        <time>2020-05-12T15:20:32Z</time>
      </trkpt>
      <trkpt lat="46.80487" lon="5.80314">
        <ele>553.2</ele>
        <time>2020-05-12T15:20:54Z</time>
      </trkpt>
      <trkpt lat="46.80489" lon="5.80308">
        <ele>554.9</ele>
        <time>2020-05-12T15:21:11Z</time>
      </trkpt>
      <trkpt lat="46.80489" lon="5.80298">
        <ele>555</ele>
        <time>2020-05-12T15:21:13Z</time>
      </trkpt>
      <trkpt lat="46.80488" lon="5.80283">
        <ele>555.1</ele>
        <time>2020-05-12T15:21:15Z</time>
      </trkpt>
      <trkpt lat="46.80487" lon="5.80272">
        <ele>555.2</ele>
        <time>2020-05-12T15:21:17Z</time>
      </trkpt>
      <trkpt lat="46.80488" lon="5.80264">
        <ele>555.2</ele>
        <time>2020-05-12T15:21:20Z</time>
      </trkpt>
      <trkpt lat="46.8049" lon="5.80258">
        <ele>555.3</ele>
        <time>2020-05-12T15:21:23Z</time>
      </trkpt>
      <trkpt lat="46.80491" lon="5.80251">
        <ele>555.5</ele>
        <time>2020-05-12T15:21:26Z</time>
      </trkpt>
      <trkpt lat="46.8049" lon="5.80244">
        <ele>556.1</ele>
        <time>2020-05-12T15:21:33Z</time>
      </trkpt>
      <trkpt lat="46.80483" lon="5.80231">
        <ele>558.2</ele>
        <time>2020-05-12T15:21:53Z</time>
      </trkpt>
      <trkpt lat="46.80479" lon="5.80229">
        <ele>558.6</ele>
        <time>2020-05-12T15:21:55Z</time>
      </trkpt>
      <trkpt lat="46.80473" lon="5.80227">
        <ele>559.9</ele>
        <time>2020-05-12T15:22:03Z</time>
      </trkpt>
      <trkpt lat="46.80469" lon="5.80226">
        <ele>560.3</ele>
        <time>2020-05-12T15:22:10Z</time>
      </trkpt>
      <trkpt lat="46.80456" lon="5.80214">
        <ele>560.8</ele>
        <time>2020-05-12T15:22:55Z</time>
      </trkpt>
      <trkpt lat="46.80451" lon="5.80211">
        <ele>560.4</ele>
        <time>2020-05-12T15:23:03Z</time>
      </trkpt>
      <trkpt lat="46.80446" lon="5.8021">
        <ele>560.1</ele>
        <time>2020-05-12T15:23:07Z</time>
      </trkpt>
      <trkpt lat="46.80441" lon="5.80208">
        <ele>559.5</ele>
        <time>2020-05-12T15:23:12Z</time>
      </trkpt>
      <trkpt lat="46.80436" lon="5.80209">
        <ele>559</ele>
        <time>2020-05-12T15:23:18Z</time>
      </trkpt>
      <trkpt lat="46.80431" lon="5.80212">
        <ele>558.8</ele>
        <time>2020-05-12T15:23:27Z</time>
      </trkpt>
      <trkpt lat="46.80424" lon="5.80214">
        <ele>559</ele>
        <time>2020-05-12T15:23:30Z</time>
      </trkpt>
      <trkpt lat="46.80418" lon="5.80211">
        <ele>559.5</ele>
        <time>2020-05-12T15:23:34Z</time>
      </trkpt>
      <trkpt lat="46.80414" lon="5.80213">
        <ele>560.1</ele>
        <time>2020-05-12T15:23:37Z</time>
      </trkpt>
      <trkpt lat="46.80409" lon="5.80216">
        <ele>561.3</ele>
        <time>2020-05-12T15:23:42Z</time>
      </trkpt>
      <trkpt lat="46.80405" lon="5.80209">
        <ele>564.6</ele>
        <time>2020-05-12T15:24:00Z</time>
      </trkpt>
      <trkpt lat="46.80392" lon="5.80191">
        <ele>566.6</ele>
        <time>2020-05-12T15:24:09Z</time>
      </trkpt>
      <trkpt lat="46.80388" lon="5.80187">
        <ele>567.1</ele>
        <time>2020-05-12T15:24:14Z</time>
      </trkpt>
      <trkpt lat="46.80384" lon="5.80183">
        <ele>567.2</ele>
        <time>2020-05-12T15:24:16Z</time>
      </trkpt>
      <trkpt lat="46.80379" lon="5.8018">
        <ele>567.5</ele>
        <time>2020-05-12T15:24:22Z</time>
      </trkpt>
      <trkpt lat="46.80374" lon="5.80182">
        <ele>567.4</ele>
        <time>2020-05-12T15:24:26Z</time>
      </trkpt>
      <trkpt lat="46.8037" lon="5.80185">
        <ele>566.5</ele>
        <time>2020-05-12T15:24:33Z</time>
      </trkpt>
      <trkpt lat="46.80365" lon="5.80185">
        <ele>565.2</ele>
        <time>2020-05-12T15:24:42Z</time>
      </trkpt>
      <trkpt lat="46.80359" lon="5.80187">
        <ele>564.6</ele>
        <time>2020-05-12T15:24:47Z</time>
      </trkpt>
      <trkpt lat="46.80354" lon="5.80187">
        <ele>563.9</ele>
        <time>2020-05-12T15:24:55Z</time>
      </trkpt>
      <trkpt lat="46.8035" lon="5.80185">
        <ele>562.5</ele>
        <time>2020-05-12T15:25:04Z</time>
      </trkpt>
      <trkpt lat="46.80345" lon="5.80183">
        <ele>561.2</ele>
        <time>2020-05-12T15:25:11Z</time>
      </trkpt>
      <trkpt lat="46.8034" lon="5.8018">
        <ele>560.4</ele>
        <time>2020-05-12T15:25:14Z</time>
      </trkpt>
      <trkpt lat="46.80336" lon="5.80176">
        <ele>559.6</ele>
        <time>2020-05-12T15:25:17Z</time>
      </trkpt>
      <trkpt lat="46.80332" lon="5.80172">
        <ele>558</ele>
        <time>2020-05-12T15:25:22Z</time>
      </trkpt>
      <trkpt lat="46.80328" lon="5.80169">
        <ele>556.8</ele>
        <time>2020-05-12T15:25:26Z</time>
      </trkpt>
      <trkpt lat="46.80324" lon="5.80163">
        <ele>554.8</ele>
        <time>2020-05-12T15:25:45Z</time>
      </trkpt>
      <trkpt lat="46.80321" lon="5.80158">
        <ele>555.6</ele>
        <time>2020-05-12T15:26:04Z</time>
      </trkpt>
      <trkpt lat="46.80315" lon="5.80148">
        <ele>559.5</ele>
        <time>2020-05-12T15:26:35Z</time>
      </trkpt>
      <trkpt lat="46.80311" lon="5.80144">
        <ele>559.4</ele>
        <time>2020-05-12T15:26:39Z</time>
      </trkpt>
      <trkpt lat="46.8031" lon="5.8015">
        <ele>554.5</ele>
        <time>2020-05-12T15:28:11Z</time>
      </trkpt>
      <trkpt lat="46.80305" lon="5.80144">
        <ele>554.5</ele>
        <time>2020-05-12T15:28:22Z</time>
      </trkpt>
      <trkpt lat="46.80303" lon="5.80139">
        <ele>554.6</ele>
        <time>2020-05-12T15:28:28Z</time>
      </trkpt>
      <trkpt lat="46.80302" lon="5.80132">
        <ele>555.3</ele>
        <time>2020-05-12T15:28:59Z</time>
      </trkpt>
      <trkpt lat="46.80303" lon="5.80116">
        <ele>558.5</ele>
        <time>2020-05-12T15:29:26Z</time>
      </trkpt>
      <trkpt lat="46.80302" lon="5.80102">
        <ele>560.3</ele>
        <time>2020-05-12T15:29:39Z</time>
      </trkpt>
      <trkpt lat="46.803" lon="5.80095">
        <ele>560.6</ele>
        <time>2020-05-12T15:29:42Z</time>
      </trkpt>
      <trkpt lat="46.80298" lon="5.80087">
        <ele>561</ele>
        <time>2020-05-12T15:29:46Z</time>
      </trkpt>
      <trkpt lat="46.80293" lon="5.80072">
        <ele>560.3</ele>
        <time>2020-05-12T15:30:30Z</time>
      </trkpt>
      <trkpt lat="46.80289" lon="5.80074">
        <ele>558.2</ele>
        <time>2020-05-12T15:30:47Z</time>
      </trkpt>
      <trkpt lat="46.80284" lon="5.80075">
        <ele>558</ele>
        <time>2020-05-12T15:30:50Z</time>
      </trkpt>
      <trkpt lat="46.8028" lon="5.80077">
        <ele>557.9</ele>
        <time>2020-05-12T15:30:58Z</time>
      </trkpt>
      <trkpt lat="46.80275" lon="5.80078">
        <ele>557.8</ele>
        <time>2020-05-12T15:31:03Z</time>
      </trkpt>
      <trkpt lat="46.80271" lon="5.80082">
        <ele>557.6</ele>
        <time>2020-05-12T15:31:13Z</time>
      </trkpt>
      <trkpt lat="46.80267" lon="5.80087">
        <ele>557.5</ele>
        <time>2020-05-12T15:31:15Z</time>
      </trkpt>
      <trkpt lat="46.80264" lon="5.80094">
        <ele>557.4</ele>
        <time>2020-05-12T15:31:17Z</time>
      </trkpt>
      <trkpt lat="46.8026" lon="5.80101">
        <ele>557.3</ele>
        <time>2020-05-12T15:31:19Z</time>
      </trkpt>
      <trkpt lat="46.80257" lon="5.80106">
        <ele>557.1</ele>
        <time>2020-05-12T15:31:23Z</time>
      </trkpt>
      <trkpt lat="46.80254" lon="5.8011">
        <ele>557</ele>
        <time>2020-05-12T15:31:31Z</time>
      </trkpt>
      <trkpt lat="46.80252" lon="5.80116">
        <ele>557</ele>
        <time>2020-05-12T15:31:33Z</time>
      </trkpt>
      <trkpt lat="46.80252" lon="5.80124">
        <ele>556.8</ele>
        <time>2020-05-12T15:31:36Z</time>
      </trkpt>
      <trkpt lat="46.80248" lon="5.80142">
        <ele>556.8</ele>
        <time>2020-05-12T15:31:52Z</time>
      </trkpt>
      <trkpt lat="46.80248" lon="5.80149">
        <ele>556.5</ele>
        <time>2020-05-12T15:32:03Z</time>
      </trkpt>
      <trkpt lat="46.80248" lon="5.80156">
        <ele>553.9</ele>
        <time>2020-05-12T15:32:22Z</time>
      </trkpt>
      <trkpt lat="46.80231" lon="5.80168">
        <ele>554.4</ele>
        <time>2020-05-12T15:33:30Z</time>
      </trkpt>
      <trkpt lat="46.80226" lon="5.80168">
        <ele>554.5</ele>
        <time>2020-05-12T15:33:33Z</time>
      </trkpt>
      <trkpt lat="46.8022" lon="5.8017">
        <ele>554.5</ele>
        <time>2020-05-12T15:33:38Z</time>
      </trkpt>
      <trkpt lat="46.80216" lon="5.80172">
        <ele>554</ele>
        <time>2020-05-12T15:33:45Z</time>
      </trkpt>
      <trkpt lat="46.80211" lon="5.80171">
        <ele>553.7</ele>
        <time>2020-05-12T15:33:49Z</time>
      </trkpt>
      <trkpt lat="46.80206" lon="5.80171">
        <ele>553.6</ele>
        <time>2020-05-12T15:33:54Z</time>
      </trkpt>
      <trkpt lat="46.80201" lon="5.80172">
        <ele>553.5</ele>
        <time>2020-05-12T15:34:00Z</time>
      </trkpt>
      <trkpt lat="46.80196" lon="5.8017">
        <ele>553.4</ele>
        <time>2020-05-12T15:34:06Z</time>
      </trkpt>
      <trkpt lat="46.80188" lon="5.80163">
        <ele>553.1</ele>
        <time>2020-05-12T15:34:22Z</time>
      </trkpt>
      <trkpt lat="46.80182" lon="5.8016">
        <ele>553.2</ele>
        <time>2020-05-12T15:34:24Z</time>
      </trkpt>
      <trkpt lat="46.80176" lon="5.80155">
        <ele>553.3</ele>
        <time>2020-05-12T15:34:26Z</time>
      </trkpt>
      <trkpt lat="46.80171" lon="5.80154">
        <ele>553.5</ele>
        <time>2020-05-12T15:34:28Z</time>
      </trkpt>
      <trkpt lat="46.80125" lon="5.80117">
        <ele>554</ele>
        <time>2020-05-12T15:35:48Z</time>
      </trkpt>
      <trkpt lat="46.8012" lon="5.80111">
        <ele>554.1</ele>
        <time>2020-05-12T15:35:50Z</time>
      </trkpt>
      <trkpt lat="46.80114" lon="5.80106">
        <ele>554.2</ele>
        <time>2020-05-12T15:35:52Z</time>
      </trkpt>
      <trkpt lat="46.80109" lon="5.80105">
        <ele>554.2</ele>
        <time>2020-05-12T15:35:54Z</time>
      </trkpt>
      <trkpt lat="46.80104" lon="5.80107">
        <ele>554.4</ele>
        <time>2020-05-12T15:36:00Z</time>
      </trkpt>
      <trkpt lat="46.80106" lon="5.80098">
        <ele>560.2</ele>
        <time>2020-05-12T15:36:45Z</time>
      </trkpt>
      <trkpt lat="46.80106" lon="5.80091">
        <ele>560.7</ele>
        <time>2020-05-12T15:36:52Z</time>
      </trkpt>
      <trkpt lat="46.80108" lon="5.80084">
        <ele>561.1</ele>
        <time>2020-05-12T15:36:58Z</time>
      </trkpt>
      <trkpt lat="46.8011" lon="5.80079">
        <ele>561.6</ele>
        <time>2020-05-12T15:37:03Z</time>
      </trkpt>
      <trkpt lat="46.80111" lon="5.80063">
        <ele>561.9</ele>
        <time>2020-05-12T15:37:13Z</time>
      </trkpt>
      <trkpt lat="46.80113" lon="5.80056">
        <ele>561.9</ele>
        <time>2020-05-12T15:37:21Z</time>
      </trkpt>
      <trkpt lat="46.80116" lon="5.80031">
        <ele>560.9</ele>
        <time>2020-05-12T15:37:40Z</time>
      </trkpt>
      <trkpt lat="46.80114" lon="5.80038">
        <ele>560.5</ele>
        <time>2020-05-12T15:37:47Z</time>
      </trkpt>
      <trkpt lat="46.80113" lon="5.80044">
        <ele>560.4</ele>
        <time>2020-05-12T15:37:52Z</time>
      </trkpt>
      <trkpt lat="46.80112" lon="5.80052">
        <ele>560.1</ele>
        <time>2020-05-12T15:37:59Z</time>
      </trkpt>
      <trkpt lat="46.80109" lon="5.80058">
        <ele>559.9</ele>
        <time>2020-05-12T15:38:03Z</time>
      </trkpt>
      <trkpt lat="46.80107" lon="5.80066">
        <ele>559.8</ele>
        <time>2020-05-12T15:38:07Z</time>
      </trkpt>
      <trkpt lat="46.80107" lon="5.80074">
        <ele>559.8</ele>
        <time>2020-05-12T15:38:12Z</time>
      </trkpt>
      <trkpt lat="46.80107" lon="5.80081">
        <ele>560.1</ele>
        <time>2020-05-12T15:38:17Z</time>
      </trkpt>
      <trkpt lat="46.80108" lon="5.80088">
        <ele>560.4</ele>
        <time>2020-05-12T15:38:22Z</time>
      </trkpt>
      <trkpt lat="46.80125" lon="5.80109">
        <ele>555.4</ele>
        <time>2020-05-12T15:39:06Z</time>
      </trkpt>
      <trkpt lat="46.8013" lon="5.80105">
        <ele>555.3</ele>
        <time>2020-05-12T15:39:09Z</time>
      </trkpt>
      <trkpt lat="46.80135" lon="5.80102">
        <ele>555.4</ele>
        <time>2020-05-12T15:39:14Z</time>
      </trkpt>
      <trkpt lat="46.80146" lon="5.80089">
        <ele>556.5</ele>
        <time>2020-05-12T15:39:27Z</time>
      </trkpt>
      <trkpt lat="46.80149" lon="5.80084">
        <ele>556.3</ele>
        <time>2020-05-12T15:39:32Z</time>
      </trkpt>
      <trkpt lat="46.80152" lon="5.8008">
        <ele>556</ele>
        <time>2020-05-12T15:39:37Z</time>
      </trkpt>
      <trkpt lat="46.80159" lon="5.80066">
        <ele>557.1</ele>
        <time>2020-05-12T15:39:47Z</time>
      </trkpt>
      <trkpt lat="46.80171" lon="5.80058">
        <ele>559.1</ele>
        <time>2020-05-12T15:40:03Z</time>
      </trkpt>
      <trkpt lat="46.80181" lon="5.80041">
        <ele>560.3</ele>
        <time>2020-05-12T15:40:12Z</time>
      </trkpt>
      <trkpt lat="46.80185" lon="5.80035">
        <ele>560.7</ele>
        <time>2020-05-12T15:40:16Z</time>
      </trkpt>
      <trkpt lat="46.80188" lon="5.80029">
        <ele>561.4</ele>
        <time>2020-05-12T15:40:21Z</time>
      </trkpt>
      <trkpt lat="46.80201" lon="5.80012">
        <ele>561.9</ele>
        <time>2020-05-12T15:40:39Z</time>
      </trkpt>
      <trkpt lat="46.80205" lon="5.80008">
        <ele>561.7</ele>
        <time>2020-05-12T15:40:43Z</time>
      </trkpt>
      <trkpt lat="46.80209" lon="5.80003">
        <ele>561.4</ele>
        <time>2020-05-12T15:40:51Z</time>
      </trkpt>
      <trkpt lat="46.80212" lon="5.79996">
        <ele>561.5</ele>
        <time>2020-05-12T15:40:54Z</time>
      </trkpt>
      <trkpt lat="46.80214" lon="5.7999">
        <ele>561.8</ele>
        <time>2020-05-12T15:40:59Z</time>
      </trkpt>
      <trkpt lat="46.80216" lon="5.79982">
        <ele>562.3</ele>
        <time>2020-05-12T15:41:03Z</time>
      </trkpt>
      <trkpt lat="46.80225" lon="5.79942">
        <ele>564.6</ele>
        <time>2020-05-12T15:41:31Z</time>
      </trkpt>
      <trkpt lat="46.80251" lon="5.79925">
        <ele>564.2</ele>
        <time>2020-05-12T15:41:59Z</time>
      </trkpt>
      <trkpt lat="46.80255" lon="5.7992">
        <ele>564.4</ele>
        <time>2020-05-12T15:42:04Z</time>
      </trkpt>
      <trkpt lat="46.80259" lon="5.79916">
        <ele>565</ele>
        <time>2020-05-12T15:42:09Z</time>
      </trkpt>
      <trkpt lat="46.80263" lon="5.79913">
        <ele>565.6</ele>
        <time>2020-05-12T15:42:15Z</time>
      </trkpt>
      <trkpt lat="46.80265" lon="5.79905">
        <ele>566</ele>
        <time>2020-05-12T15:42:20Z</time>
      </trkpt>
      <trkpt lat="46.80263" lon="5.79891">
        <ele>565.6</ele>
        <time>2020-05-12T15:42:36Z</time>
      </trkpt>
      <trkpt lat="46.80262" lon="5.79884">
        <ele>565</ele>
        <time>2020-05-12T15:42:40Z</time>
      </trkpt>
      <trkpt lat="46.80265" lon="5.79878">
        <ele>563.4</ele>
        <time>2020-05-12T15:42:58Z</time>
      </trkpt>
      <trkpt lat="46.80269" lon="5.79874">
        <ele>563.5</ele>
        <time>2020-05-12T15:43:10Z</time>
      </trkpt>
    </trkseg>
  </trk>
</gpx>